sensor_id;sensor_type;location;lat;lon;timestamp;P1;durP1;ratioP1;P2;durP2;ratioP2
12332;SDS011;6232;48.094;11.288;2023-09-12T00:00:27;13.47;;;9.03;;
12332;SDS011;6232;48.094;11.288;2023-09-12T00:03:13;14.70;;;8.57;;
12332;SDS011;6232;48.094;11.288;2023-09-12T00:05:59;9.30;;;8.27;;
12332;SDS011;6232;48.094;11.288;2023-09-12T00:08:45;10.70;;;9.17;;
12332;SDS011;6232;48.094;11.288;2023-09-12T00:11:30;11.23;;;9.70;;
12332;SDS011;6232;48.094;11.288;2023-09-12T00:14:16;10.27;;;9.20;;
12332;SDS011;6232;48.094;11.288;2023-09-12T00:17:02;11.23;;;9.37;;
12332;SDS011;6232;48.094;11.288;2023-09-12T00:19:47;12.00;;;10.60;;
12332;SDS011;6232;48.094;11.288;2023-09-12T00:22:33;9.83;;;8.63;;
12332;SDS011;6232;48.094;11.288;2023-09-12T00:25:19;12.50;;;9.90;;
12332;SDS011;6232;48.094;11.288;2023-09-12T00:28:04;17.30;;;9.13;;
12332;SDS011;6232;48.094;11.288;2023-09-12T00:30:51;10.10;;;8.67;;
12332;SDS011;6232;48.094;11.288;2023-09-12T00:33:36;11.10;;;9.33;;
12332;SDS011;6232;48.094;11.288;2023-09-12T00:36:22;10.03;;;8.80;;
12332;SDS011;6232;48.094;11.288;2023-09-12T00:39:07;12.50;;;9.80;;
12332;SDS011;6232;48.094;11.288;2023-09-12T00:41:53;11.47;;;9.57;;
12332;SDS011;6232;48.094;11.288;2023-09-12T00:44:38;10.67;;;8.47;;
12332;SDS011;6232;48.094;11.288;2023-09-12T00:47:24;11.73;;;9.30;;
12332;SDS011;6232;48.094;11.288;2023-09-12T00:50:11;13.00;;;8.40;;
12332;SDS011;6232;48.094;11.288;2023-09-12T00:52:56;10.07;;;8.37;;
12332;SDS011;6232;48.094;11.288;2023-09-12T00:55:44;9.70;;;8.70;;
12332;SDS011;6232;48.094;11.288;2023-09-12T00:58:30;10.30;;;8.60;;
12332;SDS011;6232;48.094;11.288;2023-09-12T01:01:16;13.23;;;8.53;;
12332;SDS011;6232;48.094;11.288;2023-09-12T01:04:02;10.83;;;8.53;;
12332;SDS011;6232;48.094;11.288;2023-09-12T01:06:48;12.80;;;8.43;;
12332;SDS011;6232;48.094;11.288;2023-09-12T01:09:33;10.47;;;8.27;;
12332;SDS011;6232;48.094;11.288;2023-09-12T01:12:19;9.10;;;8.17;;
12332;SDS011;6232;48.094;11.288;2023-09-12T01:15:05;12.80;;;8.70;;
12332;SDS011;6232;48.094;11.288;2023-09-12T01:17:56;10.80;;;8.67;;
12332;SDS011;6232;48.094;11.288;2023-09-12T01:20:43;11.10;;;8.13;;
12332;SDS011;6232;48.094;11.288;2023-09-12T01:29:14;12.00;;;9.20;;
12332;SDS011;6232;48.094;11.288;2023-09-12T01:32:01;15.87;;;11.17;;
12332;SDS011;6232;48.094;11.288;2023-09-12T01:34:46;15.53;;;10.53;;
12332;SDS011;6232;48.094;11.288;2023-09-12T01:37:32;11.03;;;9.00;;
12332;SDS011;6232;48.094;11.288;2023-09-12T01:40:18;13.87;;;10.13;;
12332;SDS011;6232;48.094;11.288;2023-09-12T01:43:07;12.87;;;9.63;;
12332;SDS011;6232;48.094;11.288;2023-09-12T01:45:54;12.73;;;8.93;;
12332;SDS011;6232;48.094;11.288;2023-09-12T01:48:40;11.97;;;9.13;;
12332;SDS011;6232;48.094;11.288;2023-09-12T01:51:26;11.50;;;9.23;;
12332;SDS011;6232;48.094;11.288;2023-09-12T01:54:12;12.53;;;8.60;;
12332;SDS011;6232;48.094;11.288;2023-09-12T01:56:57;12.57;;;9.00;;
12332;SDS011;6232;48.094;11.288;2023-09-12T01:59:44;10.17;;;8.23;;
12332;SDS011;6232;48.094;11.288;2023-09-12T02:02:30;12.40;;;9.30;;
12332;SDS011;6232;48.094;11.288;2023-09-12T02:05:16;13.03;;;10.30;;
12332;SDS011;6232;48.094;11.288;2023-09-12T02:08:05;12.13;;;9.80;;
12332;SDS011;6232;48.094;11.288;2023-09-12T02:10:50;12.90;;;8.80;;
12332;SDS011;6232;48.094;11.288;2023-09-12T02:13:36;12.83;;;9.80;;
12332;SDS011;6232;48.094;11.288;2023-09-12T02:16:21;10.67;;;9.47;;
12332;SDS011;6232;48.094;11.288;2023-09-12T02:19:07;10.23;;;9.03;;
12332;SDS011;6232;48.094;11.288;2023-09-12T02:21:52;9.23;;;8.17;;
12332;SDS011;6232;48.094;11.288;2023-09-12T02:24:38;12.30;;;9.30;;
12332;SDS011;6232;48.094;11.288;2023-09-12T02:27:23;11.73;;;9.30;;
12332;SDS011;6232;48.094;11.288;2023-09-12T02:30:09;10.17;;;8.80;;
12332;SDS011;6232;48.094;11.288;2023-09-12T02:32:54;10.10;;;8.60;;
12332;SDS011;6232;48.094;11.288;2023-09-12T02:35:40;8.97;;;8.07;;
12332;SDS011;6232;48.094;11.288;2023-09-12T02:38:25;10.73;;;9.20;;
12332;SDS011;6232;48.094;11.288;2023-09-12T02:41:11;11.47;;;8.17;;
12332;SDS011;6232;48.094;11.288;2023-09-12T02:43:57;12.50;;;8.80;;
12332;SDS011;6232;48.094;11.288;2023-09-12T02:46:42;11.07;;;8.37;;
12332;SDS011;6232;48.094;11.288;2023-09-12T02:49:28;12.20;;;8.80;;
12332;SDS011;6232;48.094;11.288;2023-09-12T02:52:13;11.63;;;9.30;;
12332;SDS011;6232;48.094;11.288;2023-09-12T02:54:59;12.90;;;8.97;;
12332;SDS011;6232;48.094;11.288;2023-09-12T02:57:44;9.80;;;8.47;;
12332;SDS011;6232;48.094;11.288;2023-09-12T03:00:30;8.93;;;7.80;;
12332;SDS011;6232;48.094;11.288;2023-09-12T03:03:15;11.33;;;9.50;;
12332;SDS011;6232;48.094;11.288;2023-09-12T03:06:02;12.37;;;8.67;;
12332;SDS011;6232;48.094;11.288;2023-09-12T03:08:49;11.27;;;8.20;;
12332;SDS011;6232;48.094;11.288;2023-09-12T03:11:35;8.80;;;7.90;;
12332;SDS011;6232;48.094;11.288;2023-09-12T03:14:20;10.30;;;8.33;;
12332;SDS011;6232;48.094;11.288;2023-09-12T03:17:06;8.80;;;7.97;;
12332;SDS011;6232;48.094;11.288;2023-09-12T03:19:52;12.50;;;9.80;;
12332;SDS011;6232;48.094;11.288;2023-09-12T03:22:37;8.90;;;7.70;;
12332;SDS011;6232;48.094;11.288;2023-09-12T03:25:23;10.07;;;9.00;;
12332;SDS011;6232;48.094;11.288;2023-09-12T03:28:08;9.93;;;8.00;;
12332;SDS011;6232;48.094;11.288;2023-09-12T03:30:57;12.13;;;8.93;;
12332;SDS011;6232;48.094;11.288;2023-09-12T03:33:48;9.37;;;8.30;;
12332;SDS011;6232;48.094;11.288;2023-09-12T03:36:35;12.17;;;9.00;;
12332;SDS011;6232;48.094;11.288;2023-09-12T03:39:21;10.50;;;9.17;;
12332;SDS011;6232;48.094;11.288;2023-09-12T03:42:06;9.97;;;8.37;;
12332;SDS011;6232;48.094;11.288;2023-09-12T03:44:52;10.80;;;8.27;;
12332;SDS011;6232;48.094;11.288;2023-09-12T03:47:37;10.30;;;8.50;;
12332;SDS011;6232;48.094;11.288;2023-09-12T03:50:23;9.27;;;7.90;;
12332;SDS011;6232;48.094;11.288;2023-09-12T03:53:08;10.90;;;8.07;;
12332;SDS011;6232;48.094;11.288;2023-09-12T03:55:54;12.00;;;8.83;;
12332;SDS011;6232;48.094;11.288;2023-09-12T03:58:40;10.50;;;8.00;;
12332;SDS011;6232;48.094;11.288;2023-09-12T04:01:25;9.73;;;8.20;;
12332;SDS011;6232;48.094;11.288;2023-09-12T04:04:11;10.03;;;7.80;;
12332;SDS011;6232;48.094;11.288;2023-09-12T04:06:57;20.03;;;9.30;;
12332;SDS011;6232;48.094;11.288;2023-09-12T04:09:42;9.70;;;8.40;;
12332;SDS011;6232;48.094;11.288;2023-09-12T04:12:28;9.80;;;8.37;;
12332;SDS011;6232;48.094;11.288;2023-09-12T04:15:13;10.20;;;8.27;;
12332;SDS011;6232;48.094;11.288;2023-09-12T04:17:59;14.20;;;9.00;;
12332;SDS011;6232;48.094;11.288;2023-09-12T04:20:44;10.50;;;8.97;;
12332;SDS011;6232;48.094;11.288;2023-09-12T04:23:30;16.23;;;8.60;;
12332;SDS011;6232;48.094;11.288;2023-09-12T04:26:16;9.70;;;7.70;;
12332;SDS011;6232;48.094;11.288;2023-09-12T04:29:01;11.60;;;8.17;;
12332;SDS011;6232;48.094;11.288;2023-09-12T04:31:47;9.43;;;8.50;;
12332;SDS011;6232;48.094;11.288;2023-09-12T04:34:32;9.77;;;8.20;;
12332;SDS011;6232;48.094;11.288;2023-09-12T04:37:18;10.03;;;8.93;;
12332;SDS011;6232;48.094;11.288;2023-09-12T04:40:03;11.50;;;8.30;;
12332;SDS011;6232;48.094;11.288;2023-09-12T04:42:51;9.37;;;8.37;;
12332;SDS011;6232;48.094;11.288;2023-09-12T04:45:36;9.10;;;7.80;;
12332;SDS011;6232;48.094;11.288;2023-09-12T04:48:22;11.13;;;9.33;;
12332;SDS011;6232;48.094;11.288;2023-09-12T04:51:08;8.50;;;7.60;;
12332;SDS011;6232;48.094;11.288;2023-09-12T04:53:54;16.20;;;8.57;;
12332;SDS011;6232;48.094;11.288;2023-09-12T04:56:40;17.70;;;9.33;;
12332;SDS011;6232;48.094;11.288;2023-09-12T04:59:25;10.30;;;9.20;;
12332;SDS011;6232;48.094;11.288;2023-09-12T05:02:11;10.53;;;8.67;;
12332;SDS011;6232;48.094;11.288;2023-09-12T05:04:57;11.90;;;9.07;;
12332;SDS011;6232;48.094;11.288;2023-09-12T05:07:43;11.47;;;8.43;;
12332;SDS011;6232;48.094;11.288;2023-09-12T05:10:28;11.33;;;7.83;;
12332;SDS011;6232;48.094;11.288;2023-09-12T05:13:14;9.33;;;7.80;;
12332;SDS011;6232;48.094;11.288;2023-09-12T05:15:59;13.00;;;8.83;;
12332;SDS011;6232;48.094;11.288;2023-09-12T05:18:45;14.00;;;9.80;;
12332;SDS011;6232;48.094;11.288;2023-09-12T05:21:30;12.80;;;8.33;;
12332;SDS011;6232;48.094;11.288;2023-09-12T05:24:16;13.13;;;9.00;;
12332;SDS011;6232;48.094;11.288;2023-09-12T05:27:01;15.33;;;9.70;;
12332;SDS011;6232;48.094;11.288;2023-09-12T05:29:47;14.00;;;9.43;;
12332;SDS011;6232;48.094;11.288;2023-09-12T05:32:33;11.97;;;9.10;;
12332;SDS011;6232;48.094;11.288;2023-09-12T05:35:18;12.43;;;9.27;;
12332;SDS011;6232;48.094;11.288;2023-09-12T05:38:04;13.47;;;9.97;;
12332;SDS011;6232;48.094;11.288;2023-09-12T05:40:50;12.63;;;8.93;;
12332;SDS011;6232;48.094;11.288;2023-09-12T05:43:35;14.20;;;9.20;;
12332;SDS011;6232;48.094;11.288;2023-09-12T05:46:21;12.97;;;9.50;;
12332;SDS011;6232;48.094;11.288;2023-09-12T05:49:06;11.67;;;8.93;;
12332;SDS011;6232;48.094;11.288;2023-09-12T05:51:52;12.10;;;9.73;;
12332;SDS011;6232;48.094;11.288;2023-09-12T05:54:38;13.30;;;10.30;;
12332;SDS011;6232;48.094;11.288;2023-09-12T05:57:23;17.80;;;10.70;;
12332;SDS011;6232;48.094;11.288;2023-09-12T06:00:09;14.80;;;9.87;;
12332;SDS011;6232;48.094;11.288;2023-09-12T06:02:57;13.23;;;9.83;;
12332;SDS011;6232;48.094;11.288;2023-09-12T06:05:42;18.07;;;9.27;;
12332;SDS011;6232;48.094;11.288;2023-09-12T06:08:28;12.80;;;9.63;;
12332;SDS011;6232;48.094;11.288;2023-09-12T06:11:13;24.47;;;11.50;;
12332;SDS011;6232;48.094;11.288;2023-09-12T06:13:59;13.70;;;10.43;;
12332;SDS011;6232;48.094;11.288;2023-09-12T06:16:44;12.00;;;9.90;;
12332;SDS011;6232;48.094;11.288;2023-09-12T06:19:30;12.43;;;9.23;;
12332;SDS011;6232;48.094;11.288;2023-09-12T06:22:15;15.80;;;10.03;;
12332;SDS011;6232;48.094;11.288;2023-09-12T06:25:02;10.97;;;9.50;;
12332;SDS011;6232;48.094;11.288;2023-09-12T06:27:48;11.57;;;9.20;;
12332;SDS011;6232;48.094;11.288;2023-09-12T06:30:34;12.47;;;9.90;;
12332;SDS011;6232;48.094;11.288;2023-09-12T06:33:20;12.17;;;9.90;;
12332;SDS011;6232;48.094;11.288;2023-09-12T06:36:06;15.03;;;10.70;;
12332;SDS011;6232;48.094;11.288;2023-09-12T06:38:51;11.83;;;9.27;;
12332;SDS011;6232;48.094;11.288;2023-09-12T06:41:37;12.73;;;10.30;;
12332;SDS011;6232;48.094;11.288;2023-09-12T06:44:23;10.47;;;9.07;;
12332;SDS011;6232;48.094;11.288;2023-09-12T06:47:08;11.60;;;9.97;;
12332;SDS011;6232;48.094;11.288;2023-09-12T06:49:55;14.30;;;10.37;;
12332;SDS011;6232;48.094;11.288;2023-09-12T06:52:41;11.47;;;9.83;;
12332;SDS011;6232;48.094;11.288;2023-09-12T06:55:27;13.00;;;9.10;;
12332;SDS011;6232;48.094;11.288;2023-09-12T06:58:13;10.27;;;9.17;;
12332;SDS011;6232;48.094;11.288;2023-09-12T07:01:05;12.20;;;9.30;;
12332;SDS011;6232;48.094;11.288;2023-09-12T07:03:51;13.17;;;9.27;;
12332;SDS011;6232;48.094;11.288;2023-09-12T07:06:40;11.53;;;8.60;;
12332;SDS011;6232;48.094;11.288;2023-09-12T07:09:27;16.63;;;8.50;;
12332;SDS011;6232;48.094;11.288;2023-09-12T07:12:13;11.47;;;9.40;;
12332;SDS011;6232;48.094;11.288;2023-09-12T07:14:58;11.23;;;8.93;;
12332;SDS011;6232;48.094;11.288;2023-09-12T07:17:44;14.27;;;9.53;;
12332;SDS011;6232;48.094;11.288;2023-09-12T07:20:29;12.03;;;10.00;;
12332;SDS011;6232;48.094;11.288;2023-09-12T07:23:15;12.73;;;9.07;;
12332;SDS011;6232;48.094;11.288;2023-09-12T07:26:01;9.43;;;8.43;;
12332;SDS011;6232;48.094;11.288;2023-09-12T07:28:47;10.53;;;8.77;;
12332;SDS011;6232;48.094;11.288;2023-09-12T07:31:33;10.00;;;7.93;;
12332;SDS011;6232;48.094;11.288;2023-09-12T07:34:19;9.37;;;7.80;;
12332;SDS011;6232;48.094;11.288;2023-09-12T07:37:05;10.00;;;9.00;;
12332;SDS011;6232;48.094;11.288;2023-09-12T07:39:50;11.53;;;8.97;;
12332;SDS011;6232;48.094;11.288;2023-09-12T07:42:36;8.23;;;7.43;;
12332;SDS011;6232;48.094;11.288;2023-09-12T07:45:22;9.10;;;8.20;;
12332;SDS011;6232;48.094;11.288;2023-09-12T07:48:08;9.60;;;7.93;;
12332;SDS011;6232;48.094;11.288;2023-09-12T07:50:53;9.93;;;8.10;;
12332;SDS011;6232;48.094;11.288;2023-09-12T07:53:39;9.07;;;8.20;;
12332;SDS011;6232;48.094;11.288;2023-09-12T07:56:24;9.30;;;7.80;;
12332;SDS011;6232;48.094;11.288;2023-09-12T07:59:10;14.60;;;8.10;;
12332;SDS011;6232;48.094;11.288;2023-09-12T08:01:57;8.60;;;7.70;;
12332;SDS011;6232;48.094;11.288;2023-09-12T08:04:43;11.33;;;7.30;;
12332;SDS011;6232;48.094;11.288;2023-09-12T08:07:28;11.03;;;8.63;;
12332;SDS011;6232;48.094;11.288;2023-09-12T08:10:14;8.73;;;7.90;;
12332;SDS011;6232;48.094;11.288;2023-09-12T08:13:00;11.17;;;8.70;;
12332;SDS011;6232;48.094;11.288;2023-09-12T08:15:45;9.53;;;7.73;;
12332;SDS011;6232;48.094;11.288;2023-09-12T08:18:31;10.20;;;7.97;;
12332;SDS011;6232;48.094;11.288;2023-09-12T08:21:16;9.97;;;8.20;;
12332;SDS011;6232;48.094;11.288;2023-09-12T08:24:02;8.90;;;7.30;;
12332;SDS011;6232;48.094;11.288;2023-09-12T08:26:47;9.10;;;7.13;;
12332;SDS011;6232;48.094;11.288;2023-09-12T08:29:33;10.90;;;8.53;;
12332;SDS011;6232;48.094;11.288;2023-09-12T08:32:19;7.97;;;7.17;;
12332;SDS011;6232;48.094;11.288;2023-09-12T08:35:06;9.40;;;7.67;;
12332;SDS011;6232;48.094;11.288;2023-09-12T08:37:52;8.00;;;7.20;;
12332;SDS011;6232;48.094;11.288;2023-09-12T08:40:37;8.70;;;7.17;;
12332;SDS011;6232;48.094;11.288;2023-09-12T08:43:23;13.50;;;8.00;;
12332;SDS011;6232;48.094;11.288;2023-09-12T08:46:08;8.87;;;7.97;;
12332;SDS011;6232;48.094;11.288;2023-09-12T08:48:55;8.57;;;7.07;;
12332;SDS011;6232;48.094;11.288;2023-09-12T08:51:41;8.23;;;7.37;;
12332;SDS011;6232;48.094;11.288;2023-09-12T08:54:26;6.93;;;6.03;;
12332;SDS011;6232;48.094;11.288;2023-09-12T08:57:12;10.40;;;6.73;;
12332;SDS011;6232;48.094;11.288;2023-09-12T08:59:58;9.57;;;7.13;;
12332;SDS011;6232;48.094;11.288;2023-09-12T09:02:47;9.03;;;6.80;;
12332;SDS011;6232;48.094;11.288;2023-09-12T09:05:33;10.83;;;7.80;;
12332;SDS011;6232;48.094;11.288;2023-09-12T09:08:20;9.93;;;7.43;;
12332;SDS011;6232;48.094;11.288;2023-09-12T09:11:06;11.23;;;7.67;;
12332;SDS011;6232;48.094;11.288;2023-09-12T09:13:52;13.03;;;7.80;;
12332;SDS011;6232;48.094;11.288;2023-09-12T09:16:37;8.30;;;7.17;;
12332;SDS011;6232;48.094;11.288;2023-09-12T09:19:23;14.83;;;7.80;;
12332;SDS011;6232;48.094;11.288;2023-09-12T09:22:24;9.47;;;8.37;;
12332;SDS011;6232;48.094;11.288;2023-09-12T09:25:11;8.70;;;7.30;;
12332;SDS011;6232;48.094;11.288;2023-09-12T09:27:58;9.77;;;7.93;;
12332;SDS011;6232;48.094;11.288;2023-09-12T09:30:44;9.67;;;7.10;;
12332;SDS011;6232;48.094;11.288;2023-09-12T09:33:34;7.80;;;6.90;;
12332;SDS011;6232;48.094;11.288;2023-09-12T09:36:20;8.23;;;7.40;;
12332;SDS011;6232;48.094;11.288;2023-09-12T09:39:05;11.13;;;7.97;;
12332;SDS011;6232;48.094;11.288;2023-09-12T09:41:52;11.70;;;7.73;;
12332;SDS011;6232;48.094;11.288;2023-09-12T09:44:37;12.07;;;7.37;;
12332;SDS011;6232;48.094;11.288;2023-09-12T09:47:23;14.40;;;9.13;;
12332;SDS011;6232;48.094;11.288;2023-09-12T09:50:09;11.67;;;7.10;;
12332;SDS011;6232;48.094;11.288;2023-09-12T09:53:01;7.30;;;6.40;;
12332;SDS011;6232;48.094;11.288;2023-09-12T09:56:11;7.90;;;7.20;;
12332;SDS011;6232;48.094;11.288;2023-09-12T09:58:58;8.00;;;7.20;;
12332;SDS011;6232;48.094;11.288;2023-09-12T10:01:44;8.43;;;7.47;;
12332;SDS011;6232;48.094;11.288;2023-09-12T10:04:30;7.73;;;6.57;;
12332;SDS011;6232;48.094;11.288;2023-09-12T10:07:17;12.60;;;7.20;;
12332;SDS011;6232;48.094;11.288;2023-09-12T10:10:03;8.43;;;7.07;;
12332;SDS011;6232;48.094;11.288;2023-09-12T10:12:49;8.70;;;7.40;;
12332;SDS011;6232;48.094;11.288;2023-09-12T10:15:36;7.23;;;6.40;;
12332;SDS011;6232;48.094;11.288;2023-09-12T10:18:22;7.37;;;6.67;;
12332;SDS011;6232;48.094;11.288;2023-09-12T10:21:14;8.70;;;6.80;;
12332;SDS011;6232;48.094;11.288;2023-09-12T10:24:02;9.50;;;6.20;;
12332;SDS011;6232;48.094;11.288;2023-09-12T10:26:51;12.40;;;7.27;;
12332;SDS011;6232;48.094;11.288;2023-09-12T10:29:37;7.13;;;6.00;;
12332;SDS011;6232;48.094;11.288;2023-09-12T10:32:22;8.07;;;6.03;;
12332;SDS011;6232;48.094;11.288;2023-09-12T10:35:08;7.17;;;6.20;;
12332;SDS011;6232;48.094;11.288;2023-09-12T10:37:54;8.53;;;6.30;;
12332;SDS011;6232;48.094;11.288;2023-09-12T10:40:42;7.53;;;6.60;;
12332;SDS011;6232;48.094;11.288;2023-09-12T10:43:28;8.13;;;7.33;;
12332;SDS011;6232;48.094;11.288;2023-09-12T10:46:15;16.37;;;7.10;;
12332;SDS011;6232;48.094;11.288;2023-09-12T10:49:00;9.93;;;6.30;;
12332;SDS011;6232;48.094;11.288;2023-09-12T10:51:46;7.10;;;6.20;;
12332;SDS011;6232;48.094;11.288;2023-09-12T10:54:39;7.17;;;5.40;;
12332;SDS011;6232;48.094;11.288;2023-09-12T10:57:24;12.10;;;6.70;;
12332;SDS011;6232;48.094;11.288;2023-09-12T11:00:10;6.43;;;5.77;;
12332;SDS011;6232;48.094;11.288;2023-09-12T11:02:56;8.17;;;6.37;;
12332;SDS011;6232;48.094;11.288;2023-09-12T11:05:51;7.77;;;5.60;;
12332;SDS011;6232;48.094;11.288;2023-09-12T11:08:40;7.07;;;6.37;;
12332;SDS011;6232;48.094;11.288;2023-09-12T11:11:25;6.33;;;5.73;;
12332;SDS011;6232;48.094;11.288;2023-09-12T11:14:11;5.40;;;4.90;;
12332;SDS011;6232;48.094;11.288;2023-09-12T11:17:42;5.77;;;5.17;;
12332;SDS011;6232;48.094;11.288;2023-09-12T11:20:02;6.00;;;5.37;;
12332;SDS011;6232;48.094;11.288;2023-09-12T11:22:55;6.03;;;5.47;;
12332;SDS011;6232;48.094;11.288;2023-09-12T11:26:07;5.47;;;4.97;;
12332;SDS011;6232;48.094;11.288;2023-09-12T11:28:53;6.13;;;5.30;;
12332;SDS011;6232;48.094;11.288;2023-09-12T11:31:40;6.47;;;5.87;;
12332;SDS011;6232;48.094;11.288;2023-09-12T11:34:27;7.97;;;6.40;;
12332;SDS011;6232;48.094;11.288;2023-09-12T11:37:22;6.90;;;6.20;;
12332;SDS011;6232;48.094;11.288;2023-09-12T11:42:56;6.10;;;5.03;;
12332;SDS011;6232;48.094;11.288;2023-09-12T11:45:42;7.17;;;6.03;;
12332;SDS011;6232;48.094;11.288;2023-09-12T11:48:29;6.50;;;5.67;;
12332;SDS011;6232;48.094;11.288;2023-09-12T11:51:15;8.70;;;5.73;;
12332;SDS011;6232;48.094;11.288;2023-09-12T11:54:00;6.03;;;5.43;;
12332;SDS011;6232;48.094;11.288;2023-09-12T11:56:47;5.67;;;5.07;;
12332;SDS011;6232;48.094;11.288;2023-09-12T11:59:36;6.60;;;6.00;;
12332;SDS011;6232;48.094;11.288;2023-09-12T12:02:21;8.07;;;5.90;;
12332;SDS011;6232;48.094;11.288;2023-09-12T12:05:07;7.27;;;5.10;;
12332;SDS011;6232;48.094;11.288;2023-09-12T12:07:53;5.38;;;4.80;;
12332;SDS011;6232;48.094;11.288;2023-09-12T12:10:39;5.60;;;5.07;;
12332;SDS011;6232;48.094;11.288;2023-09-12T12:13:26;6.10;;;5.50;;
12332;SDS011;6232;48.094;11.288;2023-09-12T12:16:16;6.27;;;5.67;;
12332;SDS011;6232;48.094;11.288;2023-09-12T12:19:02;6.83;;;5.10;;
12332;SDS011;6232;48.094;11.288;2023-09-12T12:21:47;5.50;;;4.97;;
12332;SDS011;6232;48.094;11.288;2023-09-12T12:24:44;7.78;;;4.22;;
12332;SDS011;6232;48.094;11.288;2023-09-12T12:27:30;6.63;;;4.47;;
12332;SDS011;6232;48.094;11.288;2023-09-12T12:30:17;5.78;;;4.93;;
12332;SDS011;6232;48.094;11.288;2023-09-12T12:33:09;6.43;;;4.70;;
12332;SDS011;6232;48.094;11.288;2023-09-12T12:36:04;5.45;;;5.00;;
12332;SDS011;6232;48.094;11.288;2023-09-12T12:38:51;5.07;;;4.68;;
12332;SDS011;6232;48.094;11.288;2023-09-12T12:41:36;7.57;;;4.38;;
12332;SDS011;6232;48.094;11.288;2023-09-12T12:44:22;8.10;;;4.55;;
12332;SDS011;6232;48.094;11.288;2023-09-12T12:47:08;7.55;;;4.88;;
12332;SDS011;6232;48.094;11.288;2023-09-12T12:49:54;5.30;;;4.35;;
12332;SDS011;6232;48.094;11.288;2023-09-12T12:52:39;5.20;;;4.13;;
12332;SDS011;6232;48.094;11.288;2023-09-12T12:55:25;5.35;;;4.60;;
12332;SDS011;6232;48.094;11.288;2023-09-12T12:58:11;5.43;;;4.13;;
12332;SDS011;6232;48.094;11.288;2023-09-12T13:00:56;7.07;;;4.50;;
12332;SDS011;6232;48.094;11.288;2023-09-12T13:03:42;8.77;;;4.28;;
12332;SDS011;6232;48.094;11.288;2023-09-12T13:06:29;13.02;;;4.50;;
12332;SDS011;6232;48.094;11.288;2023-09-12T13:09:15;5.43;;;4.93;;
12332;SDS011;6232;48.094;11.288;2023-09-12T13:12:02;7.13;;;4.40;;
12332;SDS011;6232;48.094;11.288;2023-09-12T13:14:48;5.28;;;4.15;;
12332;SDS011;6232;48.094;11.288;2023-09-12T13:17:33;6.20;;;3.83;;
12332;SDS011;6232;48.094;11.288;2023-09-12T13:20:19;7.95;;;5.03;;
12332;SDS011;6232;48.094;11.288;2023-09-12T13:23:04;4.35;;;3.95;;
12332;SDS011;6232;48.094;11.288;2023-09-12T13:25:50;5.20;;;4.80;;
12332;SDS011;6232;48.094;11.288;2023-09-12T13:28:36;9.23;;;4.80;;
12332;SDS011;6232;48.094;11.288;2023-09-12T13:31:22;5.70;;;4.65;;
12332;SDS011;6232;48.094;11.288;2023-09-12T13:34:07;4.72;;;4.28;;
12332;SDS011;6232;48.094;11.288;2023-09-12T13:36:53;6.57;;;4.45;;
12332;SDS011;6232;48.094;11.288;2023-09-12T13:39:39;4.40;;;4.00;;
12332;SDS011;6232;48.094;11.288;2023-09-12T13:42:24;4.80;;;4.40;;
12332;SDS011;6232;48.094;11.288;2023-09-12T13:45:13;5.05;;;4.57;;
12332;SDS011;6232;48.094;11.288;2023-09-12T13:47:59;4.75;;;4.25;;
12332;SDS011;6232;48.094;11.288;2023-09-12T13:50:45;4.32;;;4.03;;
12332;SDS011;6232;48.094;11.288;2023-09-12T13:53:31;4.55;;;4.07;;
12332;SDS011;6232;48.094;11.288;2023-09-12T13:56:17;4.97;;;4.07;;
12332;SDS011;6232;48.094;11.288;2023-09-12T13:59:05;5.57;;;4.03;;
12332;SDS011;6232;48.094;11.288;2023-09-12T14:01:51;4.00;;;3.60;;
12332;SDS011;6232;48.094;11.288;2023-09-12T14:04:37;6.13;;;3.92;;
12332;SDS011;6232;48.094;11.288;2023-09-12T14:07:22;6.20;;;4.70;;
12332;SDS011;6232;48.094;11.288;2023-09-12T14:10:08;4.60;;;4.13;;
12332;SDS011;6232;48.094;11.288;2023-09-12T14:12:54;14.82;;;4.47;;
12332;SDS011;6232;48.094;11.288;2023-09-12T14:15:39;5.47;;;4.13;;
12332;SDS011;6232;48.094;11.288;2023-09-12T14:18:25;5.00;;;4.45;;
12332;SDS011;6232;48.094;11.288;2023-09-12T14:21:11;5.22;;;3.78;;
12332;SDS011;6232;48.094;11.288;2023-09-12T14:23:57;4.68;;;4.20;;
12332;SDS011;6232;48.094;11.288;2023-09-12T14:26:43;5.32;;;4.07;;
12332;SDS011;6232;48.094;11.288;2023-09-12T14:29:28;5.55;;;4.47;;
12332;SDS011;6232;48.094;11.288;2023-09-12T14:32:15;3.95;;;3.65;;
12332;SDS011;6232;48.094;11.288;2023-09-12T14:35:01;8.30;;;4.07;;
12332;SDS011;6232;48.094;11.288;2023-09-12T14:37:46;3.72;;;3.42;;
12332;SDS011;6232;48.094;11.288;2023-09-12T14:40:33;6.80;;;4.35;;
12332;SDS011;6232;48.094;11.288;2023-09-12T14:43:19;4.70;;;3.47;;
12332;SDS011;6232;48.094;11.288;2023-09-12T14:46:05;6.22;;;3.92;;
12332;SDS011;6232;48.094;11.288;2023-09-12T14:48:53;5.55;;;3.70;;
12332;SDS011;6232;48.094;11.288;2023-09-12T14:51:39;5.25;;;3.30;;
12332;SDS011;6232;48.094;11.288;2023-09-12T14:54:24;5.97;;;3.95;;
12332;SDS011;6232;48.094;11.288;2023-09-12T14:57:10;5.68;;;3.83;;
12332;SDS011;6232;48.094;11.288;2023-09-12T14:59:55;7.28;;;3.47;;
12332;SDS011;6232;48.094;11.288;2023-09-12T15:02:42;4.38;;;3.60;;
12332;SDS011;6232;48.094;11.288;2023-09-12T15:05:28;5.38;;;4.22;;
12332;SDS011;6232;48.094;11.288;2023-09-12T15:08:13;6.90;;;4.03;;
12332;SDS011;6232;48.094;11.288;2023-09-12T15:10:59;4.18;;;3.85;;
12332;SDS011;6232;48.094;11.288;2023-09-12T15:13:44;3.70;;;3.40;;
12332;SDS011;6232;48.094;11.288;2023-09-12T15:16:31;4.10;;;3.72;;
12332;SDS011;6232;48.094;11.288;2023-09-12T15:19:19;4.18;;;3.75;;
12332;SDS011;6232;48.094;11.288;2023-09-12T15:22:05;3.92;;;3.63;;
12332;SDS011;6232;48.094;11.288;2023-09-12T15:24:50;4.53;;;4.13;;
12332;SDS011;6232;48.094;11.288;2023-09-12T15:27:36;4.47;;;4.07;;
12332;SDS011;6232;48.094;11.288;2023-09-12T15:30:22;4.45;;;4.05;;
12332;SDS011;6232;48.094;11.288;2023-09-12T15:33:07;5.22;;;4.68;;
12332;SDS011;6232;48.094;11.288;2023-09-12T15:35:53;5.00;;;3.88;;
12332;SDS011;6232;48.094;11.288;2023-09-12T15:38:39;5.18;;;4.68;;
12332;SDS011;6232;48.094;11.288;2023-09-12T15:41:24;6.70;;;5.23;;
12332;SDS011;6232;48.094;11.288;2023-09-12T15:44:10;6.60;;;5.20;;
12332;SDS011;6232;48.094;11.288;2023-09-12T15:46:55;9.47;;;4.97;;
12332;SDS011;6232;48.094;11.288;2023-09-12T15:49:42;8.20;;;5.50;;
12332;SDS011;6232;48.094;11.288;2023-09-12T15:52:28;6.43;;;5.83;;
12332;SDS011;6232;48.094;11.288;2023-09-12T15:55:13;6.10;;;5.20;;
12332;SDS011;6232;48.094;11.288;2023-09-12T15:57:59;6.70;;;5.43;;
12332;SDS011;6232;48.094;11.288;2023-09-12T16:00:45;6.07;;;5.03;;
12332;SDS011;6232;48.094;11.288;2023-09-12T16:03:33;6.87;;;5.63;;
12332;SDS011;6232;48.094;11.288;2023-09-12T16:06:19;11.33;;;6.23;;
12332;SDS011;6232;48.094;11.288;2023-09-12T16:09:05;8.80;;;5.90;;
12332;SDS011;6232;48.094;11.288;2023-09-12T16:11:51;7.10;;;5.73;;
12332;SDS011;6232;48.094;11.288;2023-09-12T16:14:36;6.13;;;5.57;;
12332;SDS011;6232;48.094;11.288;2023-09-12T16:17:22;7.53;;;4.90;;
12332;SDS011;6232;48.094;11.288;2023-09-12T16:20:10;7.07;;;6.07;;
12332;SDS011;6232;48.094;11.288;2023-09-12T16:22:58;18.03;;;6.17;;
12332;SDS011;6232;48.094;11.288;2023-09-12T16:25:43;11.43;;;6.60;;
12332;SDS011;6232;48.094;11.288;2023-09-12T16:28:31;8.40;;;6.17;;
12332;SDS011;6232;48.094;11.288;2023-09-12T16:31:16;10.03;;;6.73;;
12332;SDS011;6232;48.094;11.288;2023-09-12T16:34:02;9.43;;;6.10;;
12332;SDS011;6232;48.094;11.288;2023-09-12T16:36:49;6.27;;;5.67;;
12332;SDS011;6232;48.094;11.288;2023-09-12T16:39:35;9.67;;;6.77;;
12332;SDS011;6232;48.094;11.288;2023-09-12T16:42:24;8.40;;;7.30;;